createdAt,value
2022-10-22T00:01:08.840Z,99246.31
2022-10-22T00:03:36.742Z,99251.41
2022-10-22T00:06:04.700Z,99251.41
2022-10-22T00:08:32.655Z,99254.56
2022-10-22T00:11:08.395Z,99264.81
2022-10-22T00:13:36.579Z,99264.81
2022-10-22T00:16:04.823Z,99261.28
2022-10-22T00:18:32.643Z,99266.38
2022-10-22T00:21:00.490Z,99262.84
2022-10-22T00:23:28.485Z,99263.63
2022-10-22T00:25:56.567Z,99270.31
2022-10-22T00:28:25.140Z,99266.81
2022-10-22T00:31:00.739Z,99270.31
2022-10-22T00:33:30.306Z,99270.31
2022-10-22T00:35:58.562Z,99273.84
2022-10-22T00:38:26.786Z,99267.75
2022-10-22T00:40:55.041Z,99271.91
2022-10-22T00:43:22.839Z,99271.09
2022-10-22T00:45:50.674Z,99271.91
2022-10-22T00:48:31.928Z,99271.28
2022-10-22T00:51:08.665Z,99285.22
2022-10-22T00:53:45.793Z,99282.09
2022-10-22T00:56:14.111Z,99283.16
2022-10-22T00:58:50.049Z,99284.28
2022-10-22T01:01:25.368Z,99296.78
2022-10-22T01:03:54.065Z,99300.56
2022-10-22T01:06:33.612Z,99286.44
2022-10-22T01:09:41.154Z,99287.88
2022-10-22T01:12:48.092Z,99283.38
2022-10-22T01:15:56.219Z,99278.50
2022-10-22T01:18:57.493Z,99270.84
2022-10-22T01:21:40.002Z,99244.69
2022-10-22T01:24:57.555Z,99260.44
2022-10-22T01:28:12.923Z,99254.56
2022-10-22T01:30:42.341Z,99249.25
2022-10-22T01:33:16.027Z,99245.13
2022-10-22T01:35:45.641Z,99261.22
2022-10-22T01:38:20.691Z,99259.06
2022-10-22T01:40:50.276Z,99253.38
2022-10-22T01:43:18.227Z,99262.78
2022-10-22T01:45:54.246Z,99271.81
2022-10-22T01:48:57.383Z,99266.34
2022-10-22T01:51:51.964Z,99265.94
2022-10-22T01:54:36.515Z,99271.44
2022-10-22T01:57:31.539Z,99272.81
2022-10-22T02:00:13.625Z,99265.59
2022-10-22T02:03:07.912Z,99262.06
2022-10-22T02:05:49.208Z,99254.78
2022-10-22T02:08:24.693Z,99258.28
2022-10-22T02:13:35.068Z,99262.59
2022-10-22T02:16:06.897Z,99261.38
2022-10-22T02:18:40.304Z,99254.50
2022-10-22T02:23:41.878Z,99246.59
2022-10-22T02:26:32.226Z,99255.22
2022-10-22T02:29:18.523Z,99257.97
2022-10-22T02:31:51.079Z,99252.09
2022-10-22T02:34:26.873Z,99257.78
2022-10-22T02:36:56.596Z,99255.63
2022-10-22T02:39:26.467Z,99253.22
2022-10-22T02:41:55.657Z,99260.47
2022-10-22T02:44:24.389Z,99264.59
2022-10-22T02:46:52.388Z,99272.06
2022-10-22T02:49:20.285Z,99265.81
2022-10-22T02:51:48.155Z,99259.94
2022-10-22T02:54:15.976Z,99261.69
2022-10-22T02:56:43.723Z,99249.69
2022-10-22T02:59:11.545Z,99260.72
2022-10-22T03:01:39.289Z,99257.19
2022-10-22T03:04:07.286Z,99261.50
2022-10-22T03:06:35.182Z,99264.66
2022-10-22T03:09:03.173Z,99264.00
2022-10-22T03:11:30.892Z,99261.84
2022-10-22T03:13:58.638Z,99266.31
2022-10-22T03:16:26.362Z,99282.25
2022-10-22T03:18:55.162Z,99281.03
2022-10-22T03:21:33.984Z,99278.84
2022-10-22T03:24:13.202Z,99277.81
2022-10-22T03:26:45.406Z,99279.78
2022-10-22T03:29:15.972Z,99274.09
2022-10-22T03:31:43.582Z,99264.00
2022-10-22T03:34:13.475Z,99265.53
2022-10-22T03:36:41.898Z,99264.94
2022-10-22T03:39:13.481Z,99265.31
2022-10-22T03:41:41.799Z,99263.72
2022-10-22T03:44:11.272Z,99267.84
2022-10-22T03:46:39.055Z,99261.19
2022-10-22T03:49:06.739Z,99258.63
2022-10-22T03:51:34.587Z,99256.69
2022-10-22T03:54:04.012Z,99256.50
2022-10-22T03:56:32.442Z,99253.56
2022-10-22T03:59:01.663Z,99251.63
2022-10-22T04:01:31.617Z,99241.97
2022-10-22T04:03:59.672Z,99243.31
2022-10-22T04:06:29.506Z,99240.34
2022-10-22T04:08:57.980Z,99228.94
2022-10-22T04:11:26.485Z,99225.81
2022-10-22T04:13:54.455Z,99226.81
2022-10-22T04:16:26.169Z,99222.34
2022-10-22T04:18:56.941Z,99211.56
2022-10-22T04:21:26.093Z,99216.47
2022-10-22T04:23:54.116Z,99216.91
2022-10-22T04:26:22.041Z,99224.00
2022-10-22T04:28:51.897Z,99213.78
2022-10-22T04:31:23.758Z,99213.97
2022-10-22T04:34:00.194Z,99217.38
2022-10-22T04:36:29.522Z,99222.28
2022-10-22T04:39:00.939Z,99226.41
2022-10-22T04:41:36.121Z,99229.50
2022-10-22T04:44:04.417Z,99214.69
2022-10-22T04:46:35.033Z,99224.00
2022-10-22T04:49:04.031Z,99231.03
2022-10-22T04:51:32.933Z,99225.56
2022-10-22T04:54:00.622Z,99226.34
2022-10-22T04:56:31.835Z,99234.44
2022-10-22T04:59:06.810Z,99235.81
2022-10-22T05:01:42.978Z,99227.56
2022-10-22T05:04:17.718Z,99231.88
2022-10-22T05:06:45.782Z,99234.78
2022-10-22T05:09:18.515Z,99232.22
2022-10-22T05:11:50.049Z,99232.22
2022-10-22T05:14:22.139Z,99244.34
2022-10-22T05:16:51.506Z,99247.84
2022-10-22T05:19:24.995Z,99242.16
2022-10-22T05:21:55.707Z,99237.63
2022-10-22T05:24:25.531Z,99241.50
2022-10-22T05:26:56.025Z,99227.38
2022-10-22T05:29:24.621Z,99237.75
2022-10-22T05:31:53.426Z,99250.84
2022-10-22T05:34:21.203Z,99253.47
2022-10-22T05:36:48.923Z,99240.66
2022-10-22T05:39:16.713Z,99266.41
2022-10-22T05:41:44.388Z,99266.41
2022-10-22T05:44:13.750Z,99265.63
2022-10-22T05:46:43.314Z,99285.84
2022-10-22T05:49:17.076Z,99287.41
2022-10-22T05:51:45.111Z,99288.97
2022-10-22T05:54:22.186Z,99286.88
2022-10-22T05:56:49.733Z,99295.53
2022-10-22T05:59:17.282Z,99298.75
2022-10-22T06:01:45.080Z,99287.63
2022-10-22T06:04:13.888Z,99299.03
2022-10-22T06:06:46.482Z,99298.66
2022-10-22T06:09:19.576Z,99309.69
2022-10-22T06:11:48.953Z,99305.44
2022-10-22T06:14:18.279Z,99303.13
2022-10-22T06:16:46.393Z,99293.75
2022-10-22T06:19:16.758Z,99302.84
2022-10-22T06:21:45.275Z,99302.50
2022-10-22T06:24:13.922Z,99306.69
2022-10-22T06:26:42.133Z,99318.31
2022-10-22T06:29:10.505Z,99319.16
2022-10-22T06:31:40.786Z,99314.88
2022-10-22T06:34:13.348Z,99307.06
2022-10-22T06:36:42.920Z,99310.59
2022-10-22T06:39:17.206Z,99297.28
2022-10-22T06:41:45.424Z,99307.53
2022-10-22T06:44:21.201Z,99304.19
2022-10-22T06:46:53.234Z,99302.81
2022-10-22T06:49:21.911Z,99307.53
2022-10-22T06:51:54.345Z,99311.88
2022-10-22T06:54:23.396Z,99299.28
2022-10-22T06:56:51.131Z,99308.38
2022-10-22T06:59:19.062Z,99306.81
2022-10-22T07:01:46.873Z,99303.09
2022-10-22T07:04:14.890Z,99309.00
2022-10-22T07:06:42.625Z,99308.44
2022-10-22T07:09:11.105Z,99308.84
2022-10-22T07:11:45.764Z,99310.03
2022-10-22T07:14:14.956Z,99290.38
2022-10-22T07:16:43.254Z,99296.31
2022-10-22T07:19:11.464Z,99302.63
2022-10-22T07:21:39.505Z,99291.78
2022-10-22T07:24:07.891Z,99291.72
2022-10-22T07:26:37.008Z,99293.25
2022-10-22T07:29:05.387Z,99299.69
2022-10-22T07:31:33.178Z,99286.22
2022-10-22T07:34:01.125Z,99281.41
2022-10-22T07:36:28.957Z,99278.75
2022-10-22T07:38:59.679Z,99278.91
2022-10-22T07:41:29.810Z,99274.47
2022-10-22T07:44:00.745Z,99274.75
2022-10-22T07:46:28.750Z,99271.88
2022-10-22T07:48:56.595Z,99276.50
2022-10-22T07:51:24.335Z,99255.59
2022-10-22T07:53:52.073Z,99267.34
2022-10-22T07:56:19.727Z,99251.53
2022-10-22T07:58:47.403Z,99248.75
2022-10-22T08:01:15.375Z,99238.22
2022-10-22T08:03:43.147Z,99240.72
2022-10-22T08:06:13.912Z,99232.94
2022-10-22T08:08:43.611Z,99223.91
2022-10-22T08:11:12.462Z,99229.91
2022-10-22T08:13:44.847Z,99210.53
2022-10-22T08:16:13.997Z,99215.22
2022-10-22T08:18:42.451Z,99205.63
2022-10-22T08:21:12.879Z,99207.72
2022-10-22T08:23:40.790Z,99204.09
2022-10-22T08:26:09.310Z,99198.75
2022-10-22T08:28:37.401Z,99194.75
2022-10-22T08:31:09.269Z,99186.34
2022-10-22T08:33:38.917Z,99186.66
2022-10-22T08:36:08.223Z,99179.91
2022-10-22T08:38:36.119Z,99186.19
2022-10-22T08:41:19.868Z,99187.94
2022-10-22T08:44:26.925Z,99178.16
2022-10-22T08:47:26.402Z,99199.19
2022-10-22T08:49:57.098Z,99194.16
2022-10-22T08:52:25.205Z,99181.31
2022-10-22T08:54:58.837Z,99176.72
2022-10-22T08:58:18.988Z,99180.44
2022-10-22T09:00:58.663Z,99181.81
2022-10-22T09:03:35.326Z,99176.44
2022-10-22T09:06:35.381Z,99180.47
2022-10-22T09:09:16.613Z,99175.16
2022-10-22T09:11:53.328Z,99165.34
2022-10-22T09:14:24.626Z,99172.31
2022-10-22T09:17:34.187Z,99173.09
2022-10-22T09:20:26.156Z,99169.25
2022-10-22T09:23:24.077Z,99179.94
2022-10-22T09:25:52.761Z,99175.25
2022-10-22T09:28:20.456Z,99171.00
2022-10-22T09:30:48.305Z,99162.91
2022-10-22T09:33:25.219Z,99162.63
2022-10-22T09:35:56.545Z,99165.91
2022-10-22T09:38:31.321Z,99157.78
2022-10-22T09:41:04.096Z,99152.72
2022-10-22T09:43:33.752Z,99144.34
2022-10-22T09:46:06.353Z,99154.50
2022-10-22T09:48:40.949Z,99158.72
2022-10-22T09:51:41.681Z,99158.28
2022-10-22T09:54:21.306Z,99161.22
2022-10-22T09:56:55.840Z,99158.94
2022-10-22T09:59:33.901Z,99153.75
2022-10-22T10:02:26.815Z,99152.69
2022-10-22T10:05:04.993Z,99152.69
2022-10-22T10:07:35.173Z,99151.13
2022-10-22T10:10:03.615Z,99145.44
2022-10-22T10:12:47.928Z,99150.88
2022-10-22T10:15:37.570Z,99156.91
2022-10-22T10:18:56.178Z,99158.72
2022-10-22T10:22:16.911Z,99147.50
2022-10-22T10:25:31.808Z,99144.91
2022-10-22T10:28:35.741Z,99137.59
2022-10-22T10:31:36.641Z,99128.78
2022-10-22T10:34:45.399Z,99123.53
2022-10-22T10:37:25.069Z,99126.63
2022-10-22T10:40:29.761Z,99124.81
2022-10-22T10:42:57.460Z,99119.84
2022-10-22T10:46:05.445Z,99116.97
2022-10-22T10:49:08.400Z,99113.09
2022-10-22T10:51:57.344Z,99114.13
2022-10-22T10:55:05.358Z,99115.97
2022-10-22T10:57:48.699Z,99119.88
2022-10-22T11:00:20.332Z,99119.38
2022-10-22T11:03:15.689Z,99117.03
2022-10-22T11:05:55.656Z,99116.25
2022-10-22T11:08:33.042Z,99115.47
2022-10-22T11:11:32.307Z,99113.13
2022-10-22T11:14:15.017Z,99100.63
2022-10-22T11:17:04.190Z,99102.41
2022-10-22T11:19:57.801Z,99097.97
2022-10-22T11:22:50.536Z,99091.19
2022-10-22T11:25:39.584Z,99093.22
2022-10-22T11:28:27.849Z,99092.19
2022-10-22T11:31:08.878Z,99091.13
2022-10-22T11:34:31.891Z,99097.06
2022-10-22T11:37:00.461Z,99083.75
2022-10-22T11:39:39.699Z,99086.13
2022-10-22T11:42:18.254Z,99076.50
2022-10-22T11:45:15.334Z,99078.53
2022-10-22T11:47:57.833Z,99072.25
2022-10-22T11:50:47.804Z,99062.34
2022-10-22T11:53:15.579Z,99054.09
2022-10-22T11:55:51.741Z,99050.19
2022-10-22T11:58:29.732Z,99047.84
2022-10-22T12:01:09.608Z,99039.56
2022-10-22T12:04:18.696Z,99029.13
2022-10-22T12:06:58.657Z,99035.16
2022-10-22T12:09:30.434Z,99030.50
2022-10-22T12:12:24.550Z,99026.59
2022-10-22T12:14:57.745Z,99025.06
2022-10-22T12:17:28.278Z,99020.41
2022-10-22T12:20:07.567Z,99020.41
2022-10-22T12:22:37.923Z,99021.41
2022-10-22T12:25:34.738Z,99014.09
2022-10-22T12:28:10.893Z,99015.13
2022-10-22T12:30:38.985Z,99013.53
2022-10-22T12:33:16.815Z,99013.47
2022-10-22T12:35:46.745Z,99002.06
2022-10-22T12:38:23.478Z,99003.59
2022-10-22T12:40:57.221Z,98997.06
2022-10-22T12:43:31.112Z,98993.09
2022-10-22T12:46:00.215Z,98998.22
2022-10-22T12:48:34.528Z,98994.25
2022-10-22T12:51:08.080Z,98993.16
2022-10-22T12:53:52.129Z,98997.81
2022-10-22T12:56:35.399Z,98986.84
2022-10-22T12:59:19.991Z,98982.91
2022-10-22T13:01:50.939Z,98972.47
2022-10-22T13:04:28.623Z,98971.34
2022-10-22T13:07:18.357Z,98973.41
2022-10-22T13:10:01.710Z,98966.94
2022-10-22T13:12:37.000Z,98960.72
2022-10-22T13:15:40.114Z,98966.66
2022-10-22T13:18:23.990Z,98967.97
2022-10-22T13:21:02.521Z,98962.19
2022-10-22T13:23:34.297Z,98962.97
2022-10-22T13:26:01.900Z,98960.06
2022-10-22T13:28:34.114Z,98965.53
2022-10-22T13:31:17.939Z,98965.25
2022-10-22T13:33:53.969Z,98962.84
2022-10-22T13:36:23.015Z,98968.84
2022-10-22T13:38:51.273Z,98971.19
2022-10-22T13:41:23.762Z,98972.72
2022-10-22T13:43:54.079Z,98984.22
2022-10-22T13:46:23.803Z,98974.28
2022-10-22T13:48:55.372Z,98960.25
2022-10-22T13:51:35.003Z,98959.72
2022-10-22T13:54:06.936Z,98961.88
2022-10-22T13:56:34.691Z,98968.94
2022-10-22T13:59:03.205Z,98967.72
2022-10-22T14:01:31.558Z,98970.91
2022-10-22T14:04:04.598Z,98969.44
2022-10-22T14:09:15.003Z,98980.03
2022-10-22T14:11:43.453Z,98971.31
2022-10-22T14:14:14.374Z,98978.41
2022-10-22T14:16:42.209Z,98974.84
2022-10-22T14:19:17.251Z,98971.06
2022-10-22T14:21:45.687Z,98976.34
2022-10-22T14:24:14.136Z,98979.50
2022-10-22T14:26:42.058Z,98984.75
2022-10-22T14:29:12.090Z,98979.09
2022-10-22T14:31:44.345Z,98980.19
2022-10-22T14:34:15.926Z,98980.75
2022-10-22T14:36:44.329Z,98981.81
2022-10-22T14:39:13.837Z,98983.94
2022-10-22T14:41:42.666Z,98991.22
2022-10-22T14:44:14.534Z,98993.06
2022-10-22T14:46:44.209Z,98989.94
2022-10-22T14:49:12.918Z,98989.44
2022-10-22T14:51:40.619Z,98988.16
2022-10-22T14:54:08.473Z,98990.00
2022-10-22T14:59:10.606Z,98985.53
2022-10-22T15:01:39.718Z,98983.19
2022-10-22T15:04:07.591Z,98989.13
2022-10-22T15:06:36.300Z,98980.28
2022-10-22T15:09:04.547Z,98993.97
2022-10-22T15:11:32.381Z,98984.34
2022-10-22T15:14:00.034Z,98981.97
2022-10-22T15:16:27.827Z,98986.31
2022-10-22T15:18:55.777Z,98994.06
2022-10-22T15:21:24.046Z,98986.00
2022-10-22T15:23:51.824Z,98995.56
2022-10-22T15:26:19.701Z,98999.41
2022-10-22T15:28:47.456Z,99010.22
2022-10-22T15:31:15.479Z,99005.78
2022-10-22T15:33:43.906Z,99006.78
2022-10-22T15:36:17.961Z,99006.22
2022-10-22T15:38:46.061Z,99000.44
2022-10-22T15:41:14.024Z,99005.03
2022-10-22T15:43:42.151Z,99012.97
2022-10-22T15:46:14.661Z,99019.38
2022-10-22T15:48:42.858Z,99026.72
2022-10-22T15:51:17.759Z,99024.25
2022-10-22T15:53:56.531Z,99026.41
2022-10-22T15:56:26.965Z,99030.75
2022-10-22T15:59:02.747Z,99025.53
2022-10-22T16:01:33.149Z,99029.59
2022-10-22T16:04:04.678Z,99028.78
2022-10-22T16:06:37.453Z,99040.78
2022-10-22T16:09:13.652Z,99030.59
2022-10-22T16:11:42.462Z,99037.97
2022-10-22T16:14:16.625Z,99046.75
2022-10-22T16:16:47.557Z,99053.97
2022-10-22T16:19:18.618Z,99052.97
2022-10-22T16:21:50.865Z,99057.06
2022-10-22T16:24:19.907Z,99057.13
2022-10-22T16:26:48.818Z,99069.03
2022-10-22T16:29:16.893Z,99063.78
2022-10-22T16:31:45.531Z,99067.88
2022-10-22T16:34:13.732Z,99066.22
2022-10-22T16:36:41.546Z,99072.88
2022-10-22T16:39:09.385Z,99071.09
2022-10-22T16:41:37.268Z,99069.66
2022-10-22T16:44:08.030Z,99074.13
2022-10-22T16:46:39.906Z,99086.84
2022-10-22T16:49:08.439Z,99086.47
2022-10-22T16:51:36.659Z,99086.38
2022-10-22T16:54:06.943Z,99084.97
2022-10-22T16:56:37.773Z,99085.97
2022-10-22T16:59:08.476Z,99088.00
2022-10-22T17:01:40.936Z,99087.13
2022-10-22T17:04:10.157Z,99085.69
2022-10-22T17:06:37.956Z,99093.81
2022-10-22T17:09:06.322Z,99103.31
2022-10-22T17:11:36.447Z,99100.00
2022-10-22T17:14:06.908Z,99096.56
2022-10-22T17:16:34.578Z,99097.16
2022-10-22T17:19:05.435Z,99101.88
2022-10-22T17:21:34.080Z,99104.59
2022-10-22T17:24:01.940Z,99107.84
2022-10-22T17:26:30.535Z,99098.91
2022-10-22T17:28:58.546Z,99114.50
2022-10-22T17:31:32.609Z,99104.31
2022-10-22T17:34:00.452Z,99117.63
2022-10-22T17:36:33.275Z,99115.97
2022-10-22T17:39:07.732Z,99119.16
2022-10-22T17:41:37.709Z,99117.28
2022-10-22T17:44:09.349Z,99118.28
2022-10-22T17:46:41.892Z,99116.50
2022-10-22T17:49:20.437Z,99122.88
2022-10-22T17:51:48.333Z,99118.06
2022-10-22T17:54:16.309Z,99119.31
2022-10-22T17:56:44.328Z,99118.31
2022-10-22T17:59:17.090Z,99109.22
2022-10-22T18:01:48.823Z,99126.56
2022-10-22T18:04:21.213Z,99120.75
2022-10-22T18:06:50.057Z,99124.09
2022-10-22T18:09:20.278Z,99134.72
2022-10-22T18:11:51.416Z,99132.38
2022-10-22T18:14:20.923Z,99132.56
2022-10-22T18:16:51.964Z,99128.88
2022-10-22T18:19:23.345Z,99124.88
2022-10-22T18:21:51.241Z,99131.69
2022-10-22T18:24:19.107Z,99137.16
2022-10-22T18:26:46.904Z,99140.50
2022-10-22T18:29:18.530Z,99140.25
2022-10-22T18:31:47.525Z,99147.69
2022-10-22T18:34:17.810Z,99142.16
2022-10-22T18:36:48.212Z,99150.09
2022-10-22T18:39:16.144Z,99168.28
2022-10-22T18:41:44.440Z,99167.50
2022-10-22T18:44:15.487Z,99164.53
2022-10-22T18:46:43.405Z,99160.94
2022-10-22T18:49:18.573Z,99159.38
2022-10-22T18:51:48.929Z,99162.16
2022-10-22T18:54:23.019Z,99172.13
2022-10-22T18:56:59.447Z,99172.56
2022-10-22T18:59:31.060Z,99169.41
2022-10-22T19:01:59.727Z,99176.34
2022-10-22T19:04:37.373Z,99172.84
2022-10-22T19:07:06.163Z,99175.28
2022-10-22T19:09:34.403Z,99190.69
2022-10-22T19:12:02.615Z,99192.50
2022-10-22T19:14:30.622Z,99189.56
2022-10-22T19:16:58.447Z,99190.59
2022-10-22T19:19:26.521Z,99194.56
2022-10-22T19:21:56.852Z,99203.63
2022-10-22T19:24:24.495Z,99217.47
2022-10-22T19:26:52.358Z,99209.91
2022-10-22T19:29:21.524Z,99215.84
2022-10-22T19:31:51.407Z,99220.53
2022-10-22T19:34:20.647Z,99235.31
2022-10-22T19:36:51.716Z,99246.38
2022-10-22T19:39:20.563Z,99256.50
2022-10-22T19:41:48.644Z,99265.28
2022-10-22T19:44:16.576Z,99283.56
2022-10-22T19:46:44.354Z,99291.63
2022-10-22T19:49:12.109Z,99302.72
2022-10-22T19:51:40.249Z,99321.16
2022-10-22T19:54:12.856Z,99346.97
2022-10-22T19:56:41.376Z,99349.03
2022-10-22T19:59:09.392Z,99384.78
2022-10-22T20:01:38.815Z,99422.88
2022-10-22T20:04:06.630Z,99420.66
2022-10-22T20:06:34.439Z,99420.16
2022-10-22T20:09:02.221Z,99461.84
2022-10-22T20:11:30.639Z,99487.69
2022-10-22T20:13:59.068Z,99526.63
2022-10-22T20:16:30.174Z,99579.09
2022-10-22T20:19:05.387Z,99593.69
2022-10-22T20:21:34.646Z,99595.09
2022-10-22T20:24:02.645Z,99592.31
2022-10-22T20:26:31.711Z,99579.44
2022-10-22T20:28:59.885Z,99571.94
2022-10-22T20:31:33.029Z,99580.13
2022-10-22T20:34:02.101Z,99576.91
2022-10-22T20:36:31.717Z,99602.97
2022-10-22T20:39:09.302Z,99615.56
2022-10-22T20:41:40.335Z,99619.66
2022-10-22T20:44:15.487Z,99622.41
2022-10-22T20:46:44.525Z,99626.25
2022-10-22T20:49:16.878Z,99624.13
2022-10-22T20:51:45.252Z,99612.63
2022-10-22T20:54:15.011Z,99622.31
2022-10-22T20:56:43.515Z,99608.69
2022-10-22T20:59:12.451Z,99602.34
2022-10-22T21:01:44.849Z,99622.31
2022-10-22T21:04:13.648Z,99625.28
2022-10-22T21:06:43.143Z,99619.38
2022-10-22T21:09:14.433Z,99615.63
2022-10-22T21:11:43.794Z,99623.69
2022-10-22T21:14:14.882Z,99622.53
2022-10-22T21:16:51.971Z,99621.31
2022-10-22T21:19:22.612Z,99613.63
2022-10-22T21:21:50.474Z,99625.47
2022-10-22T21:24:18.547Z,99633.97
2022-10-22T21:26:46.249Z,99624.97
2022-10-22T21:29:13.940Z,99612.28
2022-10-22T21:31:41.852Z,99626.16
2022-10-22T21:34:09.606Z,99617.88
2022-10-22T21:36:37.381Z,99612.38
2022-10-22T21:39:06.717Z,99603.88
2022-10-22T21:41:34.527Z,99604.47
2022-10-22T21:44:02.260Z,99608.00
2022-10-22T21:46:30.138Z,99622.78
2022-10-22T21:49:02.116Z,99618.81
2022-10-22T21:51:33.047Z,99621.75
2022-10-22T21:54:01.200Z,99633.03
2022-10-22T21:56:33.332Z,99632.81
2022-10-22T21:59:03.910Z,99650.25
2022-10-22T22:01:32.062Z,99645.13
2022-10-22T22:04:00.018Z,99628.56
2022-10-22T22:06:33.027Z,99623.41
2022-10-22T22:09:02.327Z,99623.22
2022-10-22T22:11:30.988Z,99629.13
2022-10-22T22:14:00.405Z,99623.41
2022-10-22T22:16:32.379Z,99623.63
2022-10-22T22:19:05.589Z,99620.63
2022-10-22T22:21:36.991Z,99617.28
2022-10-22T22:24:06.001Z,99617.88
2022-10-22T22:26:34.270Z,99640.44
2022-10-22T22:29:02.181Z,99659.91
2022-10-22T22:31:33.588Z,99656.81
2022-10-22T22:34:12.873Z,99659.63
2022-10-22T22:36:45.579Z,99646.56
2022-10-22T22:39:21.022Z,99652.47
2022-10-22T22:41:49.080Z,99643.41
2022-10-22T22:44:17.185Z,99646.16
2022-10-22T22:46:45.070Z,99642.63
2022-10-22T22:49:13.642Z,99652.13
2022-10-22T22:51:43.515Z,99649.34
2022-10-22T22:54:11.553Z,99655.06
2022-10-22T22:56:39.297Z,99645.75
2022-10-22T22:59:07.071Z,99627.16
2022-10-22T23:01:38.579Z,99635.47
2022-10-22T23:04:19.135Z,99640.41
2022-10-22T23:06:46.999Z,99643.19
2022-10-22T23:09:17.296Z,99644.34
2022-10-22T23:11:47.088Z,99648.94
2022-10-22T23:14:17.701Z,99651.72
2022-10-22T23:16:50.558Z,99658.06
2022-10-22T23:19:22.138Z,99647.41
2022-10-22T23:21:55.796Z,99657.06
2022-10-22T23:24:26.988Z,99665.97
2022-10-22T23:26:56.438Z,99656.13
2022-10-22T23:29:28.675Z,99668.97
2022-10-22T23:32:01.512Z,99654.97
2022-10-22T23:34:31.639Z,99645.66
2022-10-22T23:36:59.996Z,99644.88
2022-10-22T23:39:29.323Z,99639.94
2022-10-22T23:41:58.380Z,99654.13
2022-10-22T23:44:26.194Z,99642.91
2022-10-22T23:46:55.215Z,99643.09
2022-10-22T23:49:23.110Z,99644.88
2022-10-22T23:51:50.928Z,99657.88
2022-10-22T23:54:19.014Z,99653.38
2022-10-22T23:56:47.424Z,99659.50
2022-10-22T23:59:15.477Z,99666.81
